Time;durP1;ratioP1;P1;durP2;ratioP2;P2;SDS_P1;SDS_P2;PMS_P1;PMS_P2;Temp;Humidity;BMP_temperature;BMP_pressure;BME280_temperature;BME280_humidity;BME280_pressure;Samples;Min_cycle;Max_cycle;Signal;HPM_P1;HPM_P2
2021/12/23 08:00:00;;;;;;;42.35;26.27;;;;;;;0.81;75.58;101088.94;5235351;27;1872569;-70
2021/12/23 08:02:32;;;;;;;45.55;28.77;;;;;;;0.85;75.56;101092.91;5281231;28;20373;-69
2021/12/23 08:05:03;;;;;;;39.00;26.50;;;;;;;0.82;75.92;101090.63;5280027;28;20032;-70
2021/12/23 08:07:35;;;;;;;38.88;27.58;;;;;;;0.86;75.98;101082.81;5299557;28;20028;-70
2021/12/23 08:10:07;;;;;;;36.30;24.67;;;;;;;0.88;76.00;101075.25;5290322;28;20460;-69
2021/12/23 08:12:38;;;;;;;35.25;23.77;;;;;;;0.91;75.64;101073.97;5292761;28;20058;-69
2021/12/23 08:15:09;;;;;;;37.75;25.85;;;;;;;0.94;75.97;101079.00;5297337;28;20064;-69
2021/12/23 08:17:41;;;;;;;38.53;25.20;;;;;;;0.97;75.29;101078.53;5279795;28;20542;-69
2021/12/23 08:20:14;;;;;;;37.78;25.10;;;;;;;1.02;75.35;101082.31;5284145;28;20021;-69
2021/12/23 08:22:46;;;;;;;34.75;24.45;;;;;;;1.10;75.59;101083.94;5289528;28;20032;-68
2021/12/23 08:25:17;;;;;;;35.60;25.58;;;;;;;1.17;75.65;101079.22;5290756;28;20028;-68
2021/12/23 08:27:49;;;;;;;37.42;25.80;;;;;;;1.20;75.49;101070.63;5296089;28;20040;-67
2021/12/23 08:30:21;;;;;;;38.25;24.92;;;;;;;1.20;75.62;101067.88;5284849;28;20503;-68
2021/12/23 08:32:53;;;;;;;35.78;24.70;;;;;;;1.26;75.59;101066.97;5281477;28;20021;-69
2021/12/23 08:35:27;;;;;;;38.10;25.77;;;;;;;1.28;75.04;101053.94;5300516;28;20031;-69
2021/12/23 08:37:58;;;;;;;32.50;23.48;;;;;;;1.26;74.63;101056.06;5296873;28;20031;-69
2021/12/23 08:40:30;;;;;;;33.67;24.00;;;;;;;1.56;78.38;101052.66;5299578;28;20024;-69
2021/12/23 08:43:02;;;;;;;26.77;19.38;;;;;;;2.04;86.29;101046.44;5298430;28;20547;-66
2021/12/23 08:45:35;;;;;;;36.25;24.25;;;;;;;1.67;77.67;101045.59;5295559;28;20045;-68
2021/12/23 08:48:06;;;;;;;37.90;25.77;;;;;;;1.69;76.70;101038.00;5297309;28;20028;-67
2021/12/23 08:50:37;;;;;;;34.85;23.55;;;;;;;1.63;74.95;101036.16;5304821;28;20448;-69
2021/12/23 08:53:09;;;;;;;35.55;25.05;;;;;;;1.63;74.38;101034.25;5283332;28;20025;-70
2021/12/23 08:55:40;;;;;;;34.97;25.55;;;;;;;1.65;74.80;101031.31;5280646;28;20025;-69
2021/12/23 08:58:11;;;;;;;35.22;24.17;;;;;;;1.63;74.42;101034.25;5277953;28;20043;-69
2021/12/23 09:00:43;;;;;;;36.03;24.02;;;;;;;1.66;74.82;101028.38;5279077;28;20028;-68
2021/12/23 09:03:14;;;;;;;38.08;25.08;;;;;;;1.64;74.10;101035.13;5277881;28;20036;-70
2021/12/23 09:05:45;;;;;;;35.70;25.17;;;;;;;1.64;74.10;101029.66;5278612;28;20536;-70
2021/12/23 09:08:17;;;;;;;36.25;23.23;;;;;;;1.62;74.69;101026.31;5295044;28;20035;-70
2021/12/23 09:10:48;;;;;;;35.90;23.98;;;;;;;1.59;74.94;101019.38;5283141;28;20482;-69
2021/12/23 09:13:19;;;;;;;35.33;23.98;;;;;;;1.66;74.72;101020.16;5265070;28;20031;-69
2021/12/23 09:15:54;;;;;;;38.70;25.02;;;;;;;1.68;75.03;101020.75;5267643;28;20029;-69
2021/12/23 09:18:26;;;;;;;37.25;25.48;;;;;;;1.68;74.14;101028.94;5264314;28;20139;-70
2021/12/23 09:20:57;;;;;;;31.33;21.80;;;;;;;1.96;79.48;101017.50;5267898;28;20465;-65
2021/12/23 09:23:28;;;;;;;37.58;25.70;;;;;;;1.90;77.75;101017.59;5267041;28;20096;-69
2021/12/23 09:26:00;;;;;;;35.17;24.63;;;;;;;1.89;74.81;101016.75;5287350;28;20025;-69
2021/12/23 09:28:51;;;;;;;33.88;23.08;;;;;;;1.90;74.43;101012.13;5268493;28;20024;-69
2021/12/23 09:34:13;;;;;;;32.20;22.95;;;;;;;1.94;74.80;101013.31;5272753;28;20033;-68
2021/12/23 09:36:45;;;;;;;34.30;23.77;;;;;;;1.95;74.40;101015.00;5279317;28;20021;-66
2021/12/23 09:39:16;;;;;;;34.88;23.77;;;;;;;1.93;74.10;101003.44;5265329;28;20044;-67
2021/12/23 09:41:48;;;;;;;32.28;22.58;;;;;;;1.91;73.91;101008.31;5268039;28;20357;-73
2021/12/23 09:44:19;;;;;;;38.80;26.00;;;;;;;2.14;78.99;101008.44;5272548;28;20024;-68
2021/12/23 09:46:51;;;;;;;35.15;23.40;;;;;;;2.21;75.84;101007.53;5263801;28;20044;-68
2021/12/23 09:49:23;;;;;;;38.22;23.58;;;;;;;2.11;75.14;100997.94;5263659;28;20417;-69
2021/12/23 09:51:57;;;;;;;34.92;23.75;;;;;;;2.20;75.65;100997.63;5263497;28;20104;-68
2021/12/23 09:54:28;;;;;;;35.67;23.90;;;;;;;2.23;74.72;100997.19;5263518;28;20338;-69
2021/12/23 09:57:01;;;;;;;34.10;24.15;;;;;;;2.16;74.32;100994.53;5263463;28;20036;-70
2021/12/23 09:59:32;;;;;;;35.20;24.70;;;;;;;2.23;74.33;100994.47;5268259;28;20072;-70
2021/12/23 10:02:03;;;;;;;34.22;23.75;;;;;;;2.21;74.97;100986.47;5272070;28;20072;-69
2021/12/23 10:04:35;;;;;;;38.15;24.88;;;;;;;2.16;74.42;100976.22;5264376;28;20029;-66
2021/12/23 10:07:06;;;;;;;32.92;24.00;;;;;;;2.23;75.40;100975.31;5283630;28;20464;-68
2021/12/23 10:09:48;;;;;;;39.33;27.33;;;;;;;2.23;75.54;100987.06;5268110;28;20035;-68
2021/12/23 10:30:26;;;;;;;33.28;22.65;;;;;;;2.68;75.11;100947.47;5267459;28;20033;-68
2021/12/23 10:33:26;;;;;;;37.05;24.23;;;;;;;2.60;74.75;100941.25;5270834;28;20029;-70
2021/12/23 10:38:44;;;;;;;33.15;22.55;;;;;;;2.50;75.75;100921.81;5282277;28;20037;-68
2021/12/23 10:41:18;;;;;;;38.97;25.27;;;;;;;2.56;75.50;100907.22;5282894;28;20031;-68
2021/12/23 10:43:56;;;;;;;34.13;25.05;;;;;;;2.53;75.59;100902.22;5282374;28;20388;-69
2021/12/23 10:46:30;;;;;;;40.63;25.40;;;;;;;2.50;75.33;100890.88;5281504;28;20480;-68
2021/12/23 10:49:39;;;;;;;36.05;24.05;;;;;;;2.45;76.80;100890.75;5291780;28;20464;-69
2021/12/23 10:52:10;;;;;;;37.97;25.15;;;;;;;2.53;76.83;100874.84;5263144;28;20028;-69
2021/12/23 11:00:32;;;;;;;33.72;22.65;;;;;;;2.61;77.04;100877.22;5267407;28;20041;-69
2021/12/23 11:03:24;;;;;;;32.70;22.05;;;;;;;2.73;77.85;100884.59;5261957;28;20021;-68
2021/12/23 11:09:11;;;;;;;32.00;23.02;;;;;;;2.88;78.40;100857.56;5266157;28;20036;-68
2021/12/23 11:37:13;;;;;;;33.20;21.67;;;;;;;3.22;76.66;100808.44;5262605;28;20044;-72
2021/12/23 11:40:06;;;;;;;37.28;22.95;;;;;;;3.18;76.84;100804.53;5277336;28;20124;-72
2021/12/23 11:45:45;;;;;;;33.30;22.25;;;;;;;3.29;76.28;100802.84;5170770;28;20129;-73
2021/12/23 11:48:17;;;;;;;34.47;23.00;;;;;;;3.29;76.55;100787.22;5197526;28;20405;-76
2021/12/23 11:51:06;;;;;;;31.40;22.35;;;;;;;3.34;76.76;100795.53;5273758;28;20033;-73
2021/12/23 11:53:37;;;;;;;31.70;21.48;;;;;;;3.35;76.44;100793.63;5285255;28;20428;-73
2021/12/23 11:56:11;;;;;;;33.83;23.92;;;;;;;3.42;77.08;100777.88;5286519;28;20064;-73
2021/12/23 11:58:45;;;;;;;29.98;21.63;;;;;;;3.43;76.94;100783.13;5276950;28;20044;-72
2021/12/23 12:01:20;;;;;;;31.83;21.27;;;;;;;3.55;76.85;100774.00;5285493;28;20028;-72
2021/12/23 12:04:02;;;;;;;28.98;21.73;;;;;;;3.59;76.31;100767.81;5282514;28;20468;-74
2021/12/23 12:06:38;;;;;;;32.35;21.42;;;;;;;3.57;76.97;100758.16;5274358;28;20032;-71
2021/12/23 12:09:13;;;;;;;;;;;;;;;3.68;76.98;100763.59;5264315;28;20025;-74
2021/12/23 12:11:48;;;;;;;33.22;23.05;;;;;;;3.64;76.45;100776.13;5264578;28;19920;-73
2021/12/23 12:14:41;;;;;;;28.25;20.30;;;;;;;3.67;77.00;100774.81;5266874;28;20036;-73
2021/12/23 12:17:27;;;;;;;29.42;21.23;;;;;;;3.65;76.72;100765.97;5272875;28;20029;-74
2021/12/23 12:20:08;;;;;;;29.58;20.88;;;;;;;3.71;77.26;100748.56;5267180;28;20134;-74
2021/12/23 12:22:48;;;;;;;25.83;19.67;;;;;;;3.74;77.58;100739.84;5263951;28;20090;-71
2021/12/23 12:25:25;;;;;;;30.67;20.23;;;;;;;3.92;77.93;100730.53;5270274;28;20041;-73
2021/12/23 12:27:56;;;;;;;28.67;20.60;;;;;;;3.86;77.32;100731.50;5260633;28;20033;-73
2021/12/23 12:30:35;;;;;;;31.40;21.88;;;;;;;3.93;77.03;100730.28;5260941;28;20094;-73
2021/12/23 12:33:29;;;;;;;32.80;21.55;;;;;;;4.03;77.44;100728.78;5260654;28;20063;-73
2021/12/23 12:36:00;;;;;;;28.10;19.00;;;;;;;4.58;83.02;100708.78;5264763;28;20111;-71
2021/12/23 12:38:33;;;;;;;27.90;19.83;;;;;;;4.36;77.86;100706.81;5261167;28;20560;-74
2021/12/23 12:41:29;;;;;;;30.52;21.25;;;;;;;4.33;78.24;100704.56;5260443;28;20031;-68
2021/12/23 12:44:14;;;;;;;29.35;20.95;;;;;;;4.22;77.50;100702.75;5261437;28;20032;-70
2021/12/23 12:47:13;;;;;;;27.88;19.90;;;;;;;4.29;76.57;100689.66;5266996;28;20021;-73
2021/12/23 12:49:49;;;;;;;28.85;22.00;;;;;;;4.24;76.93;100686.84;5264588;28;20029;-68
2021/12/23 12:52:33;;;;;;;33.33;20.60;;;;;;;4.18;77.25;100690.63;5277662;28;20039;-68
2021/12/23 12:55:09;;;;;;;32.05;21.85;;;;;;;4.13;77.74;100693.28;5283065;28;20012;-69
2021/12/23 12:57:52;;;;;;;30.52;22.38;;;;;;;4.12;78.08;100684.22;5285840;28;20101;-71
2021/12/23 13:00:32;;;;;;;29.55;21.25;;;;;;;4.21;78.02;100683.78;5264437;28;20037;-72
2021/12/23 13:03:14;;;;;;;28.30;20.95;;;;;;;4.25;78.17;100674.81;5263854;28;20059;-74
2021/12/23 13:05:49;;;;;;;27.13;19.70;;;;;;;4.59;79.24;100677.47;5272182;28;20032;-71
2021/12/23 13:08:26;;;;;;;30.90;22.98;;;;;;;4.27;77.45;100675.38;5273815;28;20070;-71
2021/12/23 13:11:21;;;;;;;33.00;22.95;;;;;;;4.24;77.53;100664.88;5264323;28;20025;-70
2021/12/23 13:14:11;;;;;;;30.95;20.90;;;;;;;4.28;78.23;100660.56;5267550;28;20484;-73
2021/12/23 13:16:57;;;;;;;30.90;23.05;;;;;;;4.27;79.66;100658.91;5267297;28;20024;-70
2021/12/23 13:19:34;;;;;;;35.20;22.10;;;;;;;4.33;78.26;100660.63;5270009;28;20032;-72
2021/12/23 13:22:11;;;;;;;33.90;22.08;;;;;;;4.28;78.00;100657.81;5271622;28;20117;-70
2021/12/23 13:24:46;;;;;;;30.35;21.73;;;;;;;4.28;78.16;100657.00;5280656;28;20445;-70
2021/12/23 13:27:18;;;;;;;31.38;21.35;;;;;;;4.23;78.32;100660.50;5267620;28;20051;-75
2021/12/23 13:29:50;;;;;;;29.88;20.67;;;;;;;4.21;77.97;100651.69;5264914;28;20020;-73
2021/12/23 13:32:21;;;;;;;31.23;22.65;;;;;;;4.27;79.25;100658.91;5273588;28;20028;-79
2021/12/23 13:34:53;;;;;;;34.78;22.77;;;;;;;4.25;79.07;100661.06;5286236;28;20025;-80
2021/12/23 13:37:27;;;;;;;30.75;22.33;;;;;;;4.44;80.11;100658.88;5285309;28;20024;-73
2021/12/23 13:39:59;;;;;;;29.73;20.50;;;;;;;4.49;78.95;100672.66;5276877;28;20082;-79
2021/12/23 13:42:38;;;;;;;31.33;21.95;;;;;;;4.48;79.46;100659.22;5265999;28;20025;-71
2021/12/23 13:45:09;;;;;;;35.20;23.85;;;;;;;4.51;79.28;100661.44;5263941;28;20501;-74
2021/12/23 13:47:41;;;;;;;30.08;21.73;;;;;;;4.49;79.55;100660.84;5264061;28;20025;-70
2021/12/23 13:50:17;;;;;;;32.70;21.17;;;;;;;4.50;79.64;100655.13;5271164;28;20063;-71
2021/12/23 13:52:51;;;;;;;26.80;20.90;;;;;;;4.46;79.22;100656.69;5266389;28;20037;-71
2021/12/23 13:55:26;;;;;;;31.13;23.35;;;;;;;4.44;79.45;100649.81;5278651;28;20311;-70
2021/12/23 13:57:59;;;;;;;32.60;22.30;;;;;;;4.43;79.94;100648.16;5284031;28;20035;-69
2021/12/23 14:00:34;;;;;;;31.40;23.08;;;;;;;4.35;80.47;100644.75;5270841;28;20028;-70
2021/12/23 14:03:12;;;;;;;33.57;22.63;;;;;;;4.46;80.90;100628.41;5284422;28;20118;-72
2021/12/23 14:05:49;;;;;;;31.83;22.38;;;;;;;4.47;80.17;100630.06;5280687;28;20032;-72
2021/12/23 14:08:21;;;;;;;30.13;22.42;;;;;;;4.59;80.30;100639.03;5265199;28;20036;-68
2021/12/23 14:10:52;;;;;;;30.15;20.77;;;;;;;4.58;80.15;100629.13;5263092;28;20035;-73
2021/12/23 14:13:24;;;;;;;29.55;22.20;;;;;;;4.57;80.70;100627.44;5277299;28;20472;-72
2021/12/23 14:15:55;;;;;;;34.25;24.17;;;;;;;4.49;80.22;100633.38;5285258;28;20027;-72
2021/12/23 14:24:11;;;;;;;32.30;23.45;;;;;;;4.53;80.61;100631.81;5266008;28;20033;-71
2021/12/23 14:26:43;;;;;;;29.73;22.80;;;;;;;4.51;81.03;100623.81;5279256;28;20112;-71
2021/12/23 14:29:14;;;;;;;31.48;22.45;;;;;;;4.47;81.62;100624.56;5285392;28;20024;-71
2021/12/23 14:31:48;;;;;;;29.75;22.80;;;;;;;4.48;81.79;100618.00;5274480;28;20021;-71
2021/12/23 14:34:27;;;;;;;33.38;24.48;;;;;;;4.45;81.69;100621.25;5263757;28;20040;-70
2021/12/23 14:36:59;;;;;;;33.53;23.02;;;;;;;4.37;82.72;100625.25;5263719;28;20469;-70
2021/12/23 14:39:33;;;;;;;32.50;23.98;;;;;;;4.41;81.93;100620.94;5262556;28;20037;-70
2021/12/23 14:42:13;;;;;;;32.25;23.52;;;;;;;4.46;82.29;100623.75;5263148;28;20029;-70
2021/12/23 14:44:45;;;;;;;35.25;24.73;;;;;;;4.41;82.68;100620.94;5263299;28;20107;-70
2021/12/23 14:47:30;;;;;;;33.45;25.20;;;;;;;4.46;82.36;100617.44;5261763;28;20121;-70
2021/12/23 14:52:53;;;;;;;34.35;23.88;;;;;;;4.56;82.05;100607.41;5266947;28;20045;-70
2021/12/23 14:55:32;;;;;;;28.90;23.90;;;;;;;4.52;82.33;100603.50;5284216;28;20380;-69
2021/12/23 14:58:04;;;;;;;35.25;24.55;;;;;;;4.55;82.23;100604.91;5283098;28;20154;-70
2021/12/23 15:00:41;;;;;;;34.40;25.17;;;;;;;4.50;83.14;100602.94;5273590;28;20033;-72
2021/12/23 15:03:20;;;;;;;32.08;24.98;;;;;;;4.52;83.22;100605.41;5283371;28;20078;-72
2021/12/23 15:05:53;;;;;;;36.35;26.23;;;;;;;4.49;82.90;100601.25;5283277;28;20472;-72
2021/12/23 15:08:27;;;;;;;32.97;25.15;;;;;;;4.45;84.00;100608.38;5266714;28;20400;-72
2021/12/23 15:11:08;;;;;;;34.55;25.02;;;;;;;4.53;84.15;100601.59;5265911;28;20033;-72
2021/12/23 15:13:45;;;;;;;36.20;25.20;;;;;;;4.58;84.04;100599.75;5262525;28;20017;-74
2021/12/23 15:16:26;;;;;;;34.95;25.65;;;;;;;4.53;84.18;100601.59;5261304;28;20129;-72
2021/12/23 15:19:13;;;;;;;33.53;24.98;;;;;;;4.56;84.41;100618.38;5266017;28;20028;-73
2021/12/23 15:21:49;;;;;;;35.45;25.40;;;;;;;4.53;84.52;100627.13;5270879;28;20029;-69
2021/12/23 15:24:32;;;;;;;34.20;23.92;;;;;;;4.55;84.42;100621.38;5267915;28;20020;-71
2021/12/23 15:27:07;;;;;;;38.92;26.98;;;;;;;4.56;85.24;100617.56;5262075;28;20381;-70
2021/12/23 15:29:40;;;;;;;31.58;23.88;;;;;;;4.51;85.08;100628.47;5281672;28;20071;-71
2021/12/23 15:32:16;;;;;;;37.47;25.55;;;;;;;4.56;85.41;100631.28;5280765;28;20383;-73
2021/12/23 15:34:59;;;;;;;33.30;24.25;;;;;;;4.40;85.60;100638.50;5281140;28;20032;-72
2021/12/23 15:37:36;;;;;;;33.45;24.38;;;;;;;4.49;85.61;100647.13;5261443;28;20037;-74
2021/12/23 15:40:34;;;;;;;32.58;24.90;;;;;;;4.48;85.63;100648.22;5262329;28;20420;-74
2021/12/23 15:43:09;;;;;;;34.38;25.98;;;;;;;4.50;85.74;100670.75;5252616;28;20045;-73
2021/12/23 15:45:43;;;;;;;40.85;25.63;;;;;;;4.45;86.87;100665.19;5265561;28;20052;-68
2021/12/23 15:48:15;;;;;;;30.58;24.23;;;;;;;4.47;86.92;100663.03;5262735;28;20033;-77
2021/12/23 15:50:49;;;;;;;37.55;26.63;;;;;;;4.53;86.93;100668.34;5271050;28;20104;-76
2021/12/23 15:53:20;;;;;;;36.33;24.77;;;;;;;4.56;86.97;100672.50;5261076;28;20495;-77
2021/12/23 15:56:00;;;;;;;34.60;25.55;;;;;;;4.64;87.78;100668.47;5262749;28;20045;-72
2021/12/23 15:58:33;;;;;;;35.55;24.77;;;;;;;4.60;87.52;100661.81;5263528;28;20069;-72
2021/12/23 16:01:05;;;;;;;33.75;22.48;;;;;;;4.83;89.67;100668.97;5265556;28;20365;-69
2021/12/23 16:03:39;;;;;;;34.42;24.08;;;;;;;4.87;90.02;100656.41;5286486;28;20111;-75
2021/12/23 16:08:59;;;;;;;34.92;26.25;;;;;;;4.62;88.85;100660.47;5303200;28;20032;-75
2021/12/23 16:11:31;;;;;;;36.53;26.08;;;;;;;4.62;89.06;100654.97;5302255;28;20020;-77
2021/12/23 16:14:03;;;;;;;33.13;24.15;;;;;;;4.64;89.35;100647.31;5295494;28;20467;-78
2021/12/23 16:16:35;;;;;;;37.67;24.02;;;;;;;4.65;89.35;100638.00;5269855;28;20053;-76
2021/12/23 16:19:06;;;;;;;35.58;24.15;;;;;;;4.68;89.96;100640.25;5282006;28;20035;-75
2021/12/23 16:21:37;;;;;;;36.33;26.83;;;;;;;4.56;89.79;100645.84;5286028;28;20032;-75
2021/12/23 16:24:08;;;;;;;37.95;27.25;;;;;;;4.56;89.61;100645.84;5285392;28;20024;-73
2021/12/23 16:26:40;;;;;;;35.42;23.88;;;;;;;4.54;90.17;100634.28;5268371;28;20032;-75
2021/12/23 16:29:12;;;;;;;39.35;26.38;;;;;;;4.53;90.80;100629.88;5282679;28;20047;-74
2021/12/23 16:31:43;;;;;;;37.50;26.63;;;;;;;4.58;90.45;100640.13;5277636;28;20040;-75
2021/12/23 16:34:14;;;;;;;37.83;27.48;;;;;;;4.52;90.91;100630.13;5285452;28;20025;-74
2021/12/23 16:36:46;;;;;;;35.28;25.33;;;;;;;4.49;90.41;100636.13;5286112;28;20034;-72
2021/12/23 16:39:17;;;;;;;41.05;27.02;;;;;;;4.54;90.98;100636.22;5286002;28;20051;-73
2021/12/23 16:41:48;;;;;;;35.30;24.60;;;;;;;4.51;91.44;100642.22;5285950;28;20039;-72
2021/12/23 16:44:23;;;;;;;35.35;25.45;;;;;;;4.47;91.48;100647.38;5269849;28;20420;-73
2021/12/23 16:46:54;;;;;;;37.67;23.90;;;;;;;4.49;91.50;100647.13;5264330;28;20035;-72
2021/12/23 16:49:26;;;;;;;39.45;25.50;;;;;;;4.47;91.25;100649.28;5266476;28;20366;-72
2021/12/23 16:51:57;;;;;;;37.55;25.27;;;;;;;4.44;91.82;100647.06;5273751;28;20032;-73
2021/12/23 16:54:33;;;;;;;35.50;26.65;;;;;;;4.33;91.88;100641.41;5271227;28;20021;-73
2021/12/23 16:59:36;;;;;;;43.05;27.58;;;;;;;4.34;91.88;100654.06;5264809;28;20053;-73
2021/12/23 17:02:07;;;;;;;43.08;28.27;;;;;;;4.36;92.64;100660.13;5271941;28;20056;-72
2021/12/23 17:04:45;;;;;;;43.33;29.48;;;;;;;4.31;92.54;100654.56;5285548;28;20391;-72
2021/12/23 17:07:16;;;;;;;45.85;28.42;;;;;;;4.25;93.14;100649.28;5270496;28;20345;-72
2021/12/23 17:09:50;;;;;;;44.75;29.35;;;;;;;4.22;93.23;100658.00;5276450;28;20094;-72
2021/12/23 17:12:21;;;;;;;45.85;29.98;;;;;;;4.22;93.47;100645.13;5277375;28;20025;-73
2021/12/23 17:14:53;;;;;;;45.97;29.25;;;;;;;4.16;93.28;100650.78;5297017;28;20094;-74
2021/12/23 17:17:29;;;;;;;50.05;31.92;;;;;;;4.15;94.03;100647.19;5296344;28;20029;-74
2021/12/23 17:20:05;;;;;;;45.28;29.10;;;;;;;4.14;93.77;100648.25;5264410;28;20025;-73
2021/12/23 17:22:36;;;;;;;49.83;32.83;;;;;;;4.15;94.02;100641.72;5264716;28;20067;-71
2021/12/23 17:25:08;;;;;;;50.80;31.77;;;;;;;4.14;94.73;100637.28;5284948;28;20024;-70
2021/12/23 17:27:39;;;;;;;46.30;29.80;;;;;;;4.14;94.62;100632.66;5291064;28;20029;-71
2021/12/23 17:30:11;;;;;;;44.25;29.70;;;;;;;4.16;94.96;100624.16;5284392;28;20060;-70
